sensor_id;sensor_type;location;lat;lon;timestamp;pressure;altitude;pressure_sealevel;temperature;humidity
25855;BME280;13680;49.936;11.344;2023-03-13T00:01:54;96183.69;;;7.53;91.58
25855;BME280;13680;49.936;11.344;2023-03-13T00:04:20;96184.97;;;7.56;91.33
25855;BME280;13680;49.936;11.344;2023-03-13T00:06:45;96175.38;;;7.55;91.60
25855;BME280;13680;49.936;11.344;2023-03-13T00:09:12;96191.41;;;7.55;91.48
25855;BME280;13680;49.936;11.344;2023-03-13T00:11:38;96181.31;;;7.52;90.94
25855;BME280;13680;49.936;11.344;2023-03-13T00:14:04;96170.91;;;7.50;91.03
25855;BME280;13680;49.936;11.344;2023-03-13T00:16:30;96170.09;;;7.50;90.68
25855;BME280;13680;49.936;11.344;2023-03-13T00:18:57;96163.84;;;7.41;90.73
25855;BME280;13680;49.936;11.344;2023-03-13T00:21:25;96158.78;;;7.39;90.97
25855;BME280;13680;49.936;11.344;2023-03-13T00:23:50;96156.34;;;7.43;90.90
25855;BME280;13680;49.936;11.344;2023-03-13T00:26:18;96153.16;;;7.41;90.72
25855;BME280;13680;49.936;11.344;2023-03-13T00:28:44;96142.16;;;7.42;90.72
25855;BME280;13680;49.936;11.344;2023-03-13T00:31:18;96137.59;;;7.43;90.96
25855;BME280;13680;49.936;11.344;2023-03-13T00:33:46;96135.94;;;7.47;91.32
25855;BME280;13680;49.936;11.344;2023-03-13T00:36:17;96139.69;;;7.46;91.76
25855;BME280;13680;49.936;11.344;2023-03-13T00:38:43;96137.53;;;7.48;91.84
25855;BME280;13680;49.936;11.344;2023-03-13T00:41:11;96140.09;;;7.53;91.79
25855;BME280;13680;49.936;11.344;2023-03-13T00:43:37;96145.38;;;7.58;92.46
25855;BME280;13680;49.936;11.344;2023-03-13T00:46:03;96142.91;;;7.62;91.96
25855;BME280;13680;49.936;11.344;2023-03-13T00:48:28;96145.28;;;7.63;91.96
25855;BME280;13680;49.936;11.344;2023-03-13T00:50:54;96135.25;;;7.69;91.69
25855;BME280;13680;49.936;11.344;2023-03-13T00:53:19;96135.56;;;7.67;91.85
25855;BME280;13680;49.936;11.344;2023-03-13T00:56:05;96139.91;;;7.63;91.70
25855;BME280;13680;49.936;11.344;2023-03-13T00:58:34;96138.53;;;7.66;91.60
25855;BME280;13680;49.936;11.344;2023-03-13T01:01:16;96136.06;;;7.69;91.54
25855;BME280;13680;49.936;11.344;2023-03-13T01:03:44;96129.22;;;7.63;91.42
25855;BME280;13680;49.936;11.344;2023-03-13T01:06:13;96132.38;;;7.65;91.33
25855;BME280;13680;49.936;11.344;2023-03-13T01:08:39;96119.09;;;7.60;91.26
25855;BME280;13680;49.936;11.344;2023-03-13T01:11:09;96114.13;;;7.53;91.71
25855;BME280;13680;49.936;11.344;2023-03-13T01:13:35;96117.09;;;7.52;91.45
25855;BME280;13680;49.936;11.344;2023-03-13T01:16:06;96111.06;;;7.46;91.40
25855;BME280;13680;49.936;11.344;2023-03-13T01:18:33;96113.91;;;7.50;91.44
25855;BME280;13680;49.936;11.344;2023-03-13T01:20:59;96098.47;;;7.47;90.98
25855;BME280;13680;49.936;11.344;2023-03-13T01:23:25;96097.69;;;7.46;90.99
25855;BME280;13680;49.936;11.344;2023-03-13T01:25:50;96101.44;;;7.45;90.97
25855;BME280;13680;49.936;11.344;2023-03-13T01:28:15;96096.69;;;7.42;90.90
25855;BME280;13680;49.936;11.344;2023-03-13T01:30:41;96093.22;;;7.42;90.72
25855;BME280;13680;49.936;11.344;2023-03-13T01:33:06;96087.66;;;7.38;91.68
25855;BME280;13680;49.936;11.344;2023-03-13T01:35:31;96089.16;;;7.44;91.03
25855;BME280;13680;49.936;11.344;2023-03-13T01:37:56;96087.66;;;7.38;91.62
25855;BME280;13680;49.936;11.344;2023-03-13T01:40:22;96085.09;;;7.47;91.00
25855;BME280;13680;49.936;11.344;2023-03-13T01:42:56;96091.03;;;7.44;91.33
25855;BME280;13680;49.936;11.344;2023-03-13T01:48:48;96090.84;;;7.40;90.88
25855;BME280;13680;49.936;11.344;2023-03-13T01:51:29;96085.19;;;7.42;90.56
25855;BME280;13680;49.936;11.344;2023-03-13T01:54:15;96080.31;;;7.44;90.56
25855;BME280;13680;49.936;11.344;2023-03-13T01:57:12;96083.59;;;7.41;90.73
25855;BME280;13680;49.936;11.344;2023-03-13T01:59:51;96064.38;;;7.38;90.65
25855;BME280;13680;49.936;11.344;2023-03-13T02:02:18;96067.56;;;7.41;89.96
25855;BME280;13680;49.936;11.344;2023-03-13T02:04:47;96069.16;;;7.42;90.15
25855;BME280;13680;49.936;11.344;2023-03-13T02:07:18;96067.13;;;7.33;90.43
25855;BME280;13680;49.936;11.344;2023-03-13T02:09:49;96059.63;;;7.35;90.71
25855;BME280;13680;49.936;11.344;2023-03-13T02:12:28;96053.75;;;7.33;91.13
25855;BME280;13680;49.936;11.344;2023-03-13T02:14:56;96057.38;;;7.43;90.52
25855;BME280;13680;49.936;11.344;2023-03-13T02:17:23;96059.03;;;7.38;90.54
25855;BME280;13680;49.936;11.344;2023-03-13T02:19:50;96056.66;;;7.37;90.45
25855;BME280;13680;49.936;11.344;2023-03-13T02:22:23;96051.50;;;7.27;91.09
25855;BME280;13680;49.936;11.344;2023-03-13T02:27:36;96035.66;;;7.30;90.72
25855;BME280;13680;49.936;11.344;2023-03-13T02:30:03;96027.53;;;7.35;90.14
25855;BME280;13680;49.936;11.344;2023-03-13T02:32:29;96031.09;;;7.31;89.97
25855;BME280;13680;49.936;11.344;2023-03-13T02:34:57;96020.00;;;7.24;90.78
25855;BME280;13680;49.936;11.344;2023-03-13T02:37:27;96024.06;;;7.21;91.65
25855;BME280;13680;49.936;11.344;2023-03-13T02:39:55;96013.47;;;7.30;91.33
25855;BME280;13680;49.936;11.344;2023-03-13T02:42:24;96014.25;;;7.30;90.91
25855;BME280;13680;49.936;11.344;2023-03-13T02:44:49;96012.09;;;7.32;90.83
25855;BME280;13680;49.936;11.344;2023-03-13T02:47:18;96019.59;;;7.30;90.53
25855;BME280;13680;49.936;11.344;2023-03-13T02:49:43;96013.75;;;7.28;90.38
25855;BME280;13680;49.936;11.344;2023-03-13T02:52:16;96007.72;;;7.36;90.31
25855;BME280;13680;49.936;11.344;2023-03-13T02:54:46;96010.41;;;7.36;90.17
25855;BME280;13680;49.936;11.344;2023-03-13T02:57:14;96006.75;;;7.32;90.58
25855;BME280;13680;49.936;11.344;2023-03-13T02:59:39;95996.81;;;7.33;90.45
25855;BME280;13680;49.936;11.344;2023-03-13T03:02:05;95993.84;;;7.34;90.74
25855;BME280;13680;49.936;11.344;2023-03-13T03:04:30;95993.47;;;7.27;90.38
25855;BME280;13680;49.936;11.344;2023-03-13T03:06:56;95984.84;;;7.30;90.22
25855;BME280;13680;49.936;11.344;2023-03-13T03:09:22;95991.56;;;7.28;90.84
25855;BME280;13680;49.936;11.344;2023-03-13T03:11:48;95989.47;;;7.38;90.25
25855;BME280;13680;49.936;11.344;2023-03-13T03:14:13;95979.50;;;7.30;90.38
25855;BME280;13680;49.936;11.344;2023-03-13T03:16:39;95976.72;;;7.35;90.37
25855;BME280;13680;49.936;11.344;2023-03-13T03:19:05;95975.94;;;7.35;90.40
25855;BME280;13680;49.936;11.344;2023-03-13T03:21:31;95965.91;;;7.41;90.16
25855;BME280;13680;49.936;11.344;2023-03-13T03:23:57;95966.91;;;7.31;90.95
25855;BME280;13680;49.936;11.344;2023-03-13T03:26:22;95976.41;;;7.37;90.61
25855;BME280;13680;49.936;11.344;2023-03-13T03:28:47;95967.91;;;7.35;90.68
25855;BME280;13680;49.936;11.344;2023-03-13T03:31:14;95970.75;;;7.38;90.77
25855;BME280;13680;49.936;11.344;2023-03-13T03:33:40;95973.84;;;7.46;91.27
25855;BME280;13680;49.936;11.344;2023-03-13T03:36:08;95968.69;;;7.63;91.33
25855;BME280;13680;49.936;11.344;2023-03-13T03:38:33;95971.44;;;7.72;90.60
25855;BME280;13680;49.936;11.344;2023-03-13T03:40:59;95969.63;;;7.81;89.96
25855;BME280;13680;49.936;11.344;2023-03-13T03:43:24;95963.66;;;7.84;89.56
25855;BME280;13680;49.936;11.344;2023-03-13T03:45:50;95963.66;;;7.84;89.26
25855;BME280;13680;49.936;11.344;2023-03-13T03:48:15;95965.84;;;7.96;88.69
25855;BME280;13680;49.936;11.344;2023-03-13T03:50:41;95955.13;;;7.96;89.01
25855;BME280;13680;49.936;11.344;2023-03-13T03:53:06;95950.75;;;8.00;88.88
25855;BME280;13680;49.936;11.344;2023-03-13T03:55:32;95953.13;;;8.02;88.79
25855;BME280;13680;49.936;11.344;2023-03-13T03:57:58;95948.56;;;8.02;88.49
25855;BME280;13680;49.936;11.344;2023-03-13T04:00:23;95945.59;;;8.04;88.62
25855;BME280;13680;49.936;11.344;2023-03-13T04:02:49;95944.66;;;8.09;88.17
25855;BME280;13680;49.936;11.344;2023-03-13T04:05:16;95947.22;;;8.14;88.08
25855;BME280;13680;49.936;11.344;2023-03-13T04:07:41;95936.63;;;8.09;88.16
25855;BME280;13680;49.936;11.344;2023-03-13T04:10:07;95933.44;;;8.21;87.94
25855;BME280;13680;49.936;11.344;2023-03-13T04:12:32;95930.69;;;8.12;88.08
25855;BME280;13680;49.936;11.344;2023-03-13T04:14:58;95925.97;;;8.17;88.50
25855;BME280;13680;49.936;11.344;2023-03-13T04:17:23;95925.69;;;8.19;87.84
25855;BME280;13680;49.936;11.344;2023-03-13T04:19:48;95922.41;;;8.22;87.93
25855;BME280;13680;49.936;11.344;2023-03-13T04:22:14;95917.81;;;8.23;87.91
25855;BME280;13680;49.936;11.344;2023-03-13T04:24:39;95912.78;;;8.21;88.00
25855;BME280;13680;49.936;11.344;2023-03-13T04:27:04;95898.31;;;8.22;87.79
25855;BME280;13680;49.936;11.344;2023-03-13T04:29:33;95899.22;;;8.17;88.09
25855;BME280;13680;49.936;11.344;2023-03-13T04:31:59;95889.63;;;8.16;88.69
25855;BME280;13680;49.936;11.344;2023-03-13T04:34:24;95876.69;;;8.18;88.37
25855;BME280;13680;49.936;11.344;2023-03-13T04:36:50;95876.88;;;8.22;88.47
25855;BME280;13680;49.936;11.344;2023-03-13T04:39:15;95877.78;;;8.17;88.49
25855;BME280;13680;49.936;11.344;2023-03-13T04:41:41;95875.59;;;8.19;88.45
25855;BME280;13680;49.936;11.344;2023-03-13T04:44:06;95866.66;;;8.24;88.29
25855;BME280;13680;49.936;11.344;2023-03-13T04:46:31;95864.22;;;8.14;88.54
25855;BME280;13680;49.936;11.344;2023-03-13T04:48:57;95864.41;;;8.17;88.55
25855;BME280;13680;49.936;11.344;2023-03-13T04:51:22;95856.34;;;8.17;89.02
25855;BME280;13680;49.936;11.344;2023-03-13T04:53:48;95860.75;;;8.13;89.36
25855;BME280;13680;49.936;11.344;2023-03-13T04:56:22;95866.59;;;8.15;88.36
25855;BME280;13680;49.936;11.344;2023-03-13T04:58:48;95863.53;;;8.31;88.11
25855;BME280;13680;49.936;11.344;2023-03-13T05:01:13;95862.13;;;8.33;87.48
25855;BME280;13680;49.936;11.344;2023-03-13T05:03:38;95859.59;;;8.28;87.49
25855;BME280;13680;49.936;11.344;2023-03-13T05:06:04;95857.38;;;8.30;87.45
25855;BME280;13680;49.936;11.344;2023-03-13T05:08:29;95858.97;;;8.31;87.23
25855;BME280;13680;49.936;11.344;2023-03-13T05:10:55;95854.47;;;8.41;86.77
25855;BME280;13680;49.936;11.344;2023-03-13T05:13:20;95854.47;;;8.41;86.63
25855;BME280;13680;49.936;11.344;2023-03-13T05:15:45;95854.56;;;8.35;86.90
25855;BME280;13680;49.936;11.344;2023-03-13T05:18:11;95846.53;;;8.35;87.13
25855;BME280;13680;49.936;11.344;2023-03-13T05:20:37;95843.97;;;8.22;87.82
25855;BME280;13680;49.936;11.344;2023-03-13T05:23:02;95834.25;;;8.34;87.41
25855;BME280;13680;49.936;11.344;2023-03-13T05:25:27;95841.22;;;8.44;86.68
25855;BME280;13680;49.936;11.344;2023-03-13T05:27:53;95843.19;;;8.52;86.15
25855;BME280;13680;49.936;11.344;2023-03-13T05:30:18;95834.84;;;8.54;86.02
25855;BME280;13680;49.936;11.344;2023-03-13T05:32:44;95833.19;;;8.44;86.36
25855;BME280;13680;49.936;11.344;2023-03-13T05:35:09;95830.63;;;8.62;86.19
25855;BME280;13680;49.936;11.344;2023-03-13T05:37:34;95832.97;;;8.63;85.44
25855;BME280;13680;49.936;11.344;2023-03-13T05:40:00;95829.25;;;8.73;85.03
25855;BME280;13680;49.936;11.344;2023-03-13T05:42:25;95839.44;;;8.54;86.57
25855;BME280;13680;49.936;11.344;2023-03-13T05:44:51;95833.16;;;8.67;85.05
25855;BME280;13680;49.936;11.344;2023-03-13T05:47:16;95828.78;;;8.80;85.71
25855;BME280;13680;49.936;11.344;2023-03-13T05:49:42;95831.97;;;8.82;86.72
25855;BME280;13680;49.936;11.344;2023-03-13T05:52:08;95822.84;;;8.92;86.74
25855;BME280;13680;49.936;11.344;2023-03-13T05:54:33;95821.88;;;8.88;87.26
25855;BME280;13680;49.936;11.344;2023-03-13T05:56:59;95816.94;;;8.72;88.58
25855;BME280;13680;49.936;11.344;2023-03-13T05:59:24;95821.38;;;8.77;89.12
25855;BME280;13680;49.936;11.344;2023-03-13T06:01:49;95814.94;;;8.87;88.95
25855;BME280;13680;49.936;11.344;2023-03-13T06:04:15;95808.19;;;8.89;89.09
25855;BME280;13680;49.936;11.344;2023-03-13T06:06:40;95813.16;;;8.73;91.34
25855;BME280;13680;49.936;11.344;2023-03-13T06:09:05;95798.22;;;8.81;90.24
25855;BME280;13680;49.936;11.344;2023-03-13T06:11:31;95798.41;;;8.93;90.42
25855;BME280;13680;49.936;11.344;2023-03-13T06:13:56;95784.69;;;8.95;89.45
25855;BME280;13680;49.936;11.344;2023-03-13T06:16:21;95785.94;;;8.89;90.22
25855;BME280;13680;49.936;11.344;2023-03-13T06:18:47;95783.75;;;8.99;90.08
25855;BME280;13680;49.936;11.344;2023-03-13T06:21:12;95784.69;;;9.04;90.29
25855;BME280;13680;49.936;11.344;2023-03-13T06:23:37;95781.69;;;8.96;90.83
25855;BME280;13680;49.936;11.344;2023-03-13T06:26:03;95776.16;;;9.01;90.80
25855;BME280;13680;49.936;11.344;2023-03-13T06:28:28;95774.13;;;8.98;90.70
25855;BME280;13680;49.936;11.344;2023-03-13T06:30:54;95775.56;;;9.13;90.19
25855;BME280;13680;49.936;11.344;2023-03-13T06:33:19;95776.97;;;9.11;90.37
25855;BME280;13680;49.936;11.344;2023-03-13T06:35:45;95770.66;;;9.15;90.12
25855;BME280;13680;49.936;11.344;2023-03-13T06:38:10;95778.09;;;9.19;89.98
25855;BME280;13680;49.936;11.344;2023-03-13T06:40:35;95776.81;;;9.25;89.60
25855;BME280;13680;49.936;11.344;2023-03-13T06:43:01;95784.25;;;9.19;90.84
25855;BME280;13680;49.936;11.344;2023-03-13T06:45:26;95770.66;;;9.07;91.63
25855;BME280;13680;49.936;11.344;2023-03-13T06:47:52;95770.50;;;9.12;91.64
25855;BME280;13680;49.936;11.344;2023-03-13T06:50:17;95755.50;;;9.11;92.08
25855;BME280;13680;49.936;11.344;2023-03-13T06:52:43;95755.69;;;9.14;92.89
25855;BME280;13680;49.936;11.344;2023-03-13T06:55:09;95737.06;;;9.27;91.72
25855;BME280;13680;49.936;11.344;2023-03-13T06:57:34;95739.13;;;9.21;91.98
25855;BME280;13680;49.936;11.344;2023-03-13T07:00:00;95738.94;;;9.00;95.51
25855;BME280;13680;49.936;11.344;2023-03-13T07:02:25;95742.13;;;9.28;92.92
25855;BME280;13680;49.936;11.344;2023-03-13T07:04:51;95750.16;;;9.46;92.07
25855;BME280;13680;49.936;11.344;2023-03-13T07:07:16;95754.59;;;9.50;91.88
25855;BME280;13680;49.936;11.344;2023-03-13T07:09:41;95752.69;;;9.33;92.88
25855;BME280;13680;49.936;11.344;2023-03-13T07:12:07;95755.50;;;9.11;94.37
25855;BME280;13680;49.936;11.344;2023-03-13T07:14:32;95761.69;;;9.29;93.13
25855;BME280;13680;49.936;11.344;2023-03-13T07:16:58;95753.16;;;9.44;93.43
25855;BME280;13680;49.936;11.344;2023-03-13T07:19:24;95762.78;;;9.54;92.08
25855;BME280;13680;49.936;11.344;2023-03-13T07:21:50;95758.81;;;9.60;91.99
25855;BME280;13680;49.936;11.344;2023-03-13T07:24:17;95761.81;;;8.97;95.73
25855;BME280;13680;49.936;11.344;2023-03-13T07:26:43;95765.63;;;9.49;93.63
25855;BME280;13680;49.936;11.344;2023-03-13T07:29:08;95770.84;;;9.19;94.91
25855;BME280;13680;49.936;11.344;2023-03-13T07:31:34;95759.31;;;9.45;92.74
25855;BME280;13680;49.936;11.344;2023-03-13T07:33:59;95770.22;;;9.57;91.79
25855;BME280;13680;49.936;11.344;2023-03-13T07:36:25;95766.72;;;9.74;91.60
25855;BME280;13680;49.936;11.344;2023-03-13T07:38:51;95770.31;;;9.87;90.30
25855;BME280;13680;49.936;11.344;2023-03-13T07:41:17;95776.81;;;9.77;90.87
25855;BME280;13680;49.936;11.344;2023-03-13T07:43:43;95766.25;;;9.46;93.04
25855;BME280;13680;49.936;11.344;2023-03-13T07:46:11;95767.50;;;9.75;91.16
25855;BME280;13680;49.936;11.344;2023-03-13T07:48:39;95762.75;;;9.89;90.48
25855;BME280;13680;49.936;11.344;2023-03-13T07:51:07;95758.31;;;9.93;89.73
25855;BME280;13680;49.936;11.344;2023-03-13T07:53:34;95750.69;;;10.13;89.22
25855;BME280;13680;49.936;11.344;2023-03-13T07:56:06;95760.72;;;9.69;91.10
25855;BME280;13680;49.936;11.344;2023-03-13T07:58:34;95755.63;;;9.93;90.40
25855;BME280;13680;49.936;11.344;2023-03-13T08:01:00;95751.75;;;9.64;91.96
25855;BME280;13680;49.936;11.344;2023-03-13T08:03:26;95757.38;;;9.89;91.20
25855;BME280;13680;49.936;11.344;2023-03-13T08:06:01;95765.84;;;10.09;90.38
25855;BME280;13680;49.936;11.344;2023-03-13T08:08:28;95755.56;;;10.20;89.19
25855;BME280;13680;49.936;11.344;2023-03-13T08:10:59;95765.66;;;10.14;89.34
25855;BME280;13680;49.936;11.344;2023-03-13T08:13:24;95772.59;;;10.24;89.01
25855;BME280;13680;49.936;11.344;2023-03-13T08:15:49;95768.06;;;10.07;90.10
25855;BME280;13680;49.936;11.344;2023-03-13T08:18:14;95771.94;;;10.36;88.01
25855;BME280;13680;49.936;11.344;2023-03-13T08:20:40;95765.56;;;10.02;89.77
25855;BME280;13680;49.936;11.344;2023-03-13T08:23:05;95770.06;;;10.27;88.36
25855;BME280;13680;49.936;11.344;2023-03-13T08:25:31;95768.31;;;10.31;88.19
25855;BME280;13680;49.936;11.344;2023-03-13T08:27:57;95760.72;;;10.34;88.30
25855;BME280;13680;49.936;11.344;2023-03-13T08:30:22;95758.44;;;10.53;86.82
25855;BME280;13680;49.936;11.344;2023-03-13T08:32:47;95759.88;;;9.94;90.15
25855;BME280;13680;49.936;11.344;2023-03-13T08:35:13;95774.03;;;10.21;88.61
25855;BME280;13680;49.936;11.344;2023-03-13T08:37:38;95758.81;;;10.43;87.60
25855;BME280;13680;49.936;11.344;2023-03-13T08:40:04;95749.56;;;10.14;88.58
25855;BME280;13680;49.936;11.344;2023-03-13T08:42:35;95759.47;;;10.40;87.41
25855;BME280;13680;49.936;11.344;2023-03-13T08:45:00;95757.91;;;10.69;86.27
25855;BME280;13680;49.936;11.344;2023-03-13T08:47:25;95746.31;;;10.47;86.92
25855;BME280;13680;49.936;11.344;2023-03-13T08:49:50;95743.09;;;10.54;87.06
25855;BME280;13680;49.936;11.344;2023-03-13T08:52:16;95747.50;;;10.58;87.10
25855;BME280;13680;49.936;11.344;2023-03-13T08:54:41;95746.41;;;10.59;86.66
25855;BME280;13680;49.936;11.344;2023-03-13T08:57:06;95746.03;;;10.70;86.21
25855;BME280;13680;49.936;11.344;2023-03-13T08:59:31;95737.22;;;10.90;85.34
25855;BME280;13680;49.936;11.344;2023-03-13T09:01:57;95738.50;;;10.84;85.84
25855;BME280;13680;49.936;11.344;2023-03-13T09:04:22;95737.69;;;10.92;85.41
25855;BME280;13680;49.936;11.344;2023-03-13T09:09:43;95730.72;;;10.91;85.27
25855;BME280;13680;49.936;11.344;2023-03-13T09:12:08;95740.63;;;11.00;85.43
25855;BME280;13680;49.936;11.344;2023-03-13T09:14:34;95737.50;;;10.97;85.03
25855;BME280;13680;49.936;11.344;2023-03-13T09:16:59;95738.63;;;11.18;84.48
25855;BME280;13680;49.936;11.344;2023-03-13T09:19:24;95739.88;;;11.20;84.12
25855;BME280;13680;49.936;11.344;2023-03-13T09:21:50;95731.72;;;11.08;84.56
25855;BME280;13680;49.936;11.344;2023-03-13T09:24:15;95725.47;;;11.16;84.68
25855;BME280;13680;49.936;11.344;2023-03-13T09:26:41;95727.91;;;11.09;84.82
25855;BME280;13680;49.936;11.344;2023-03-13T09:29:06;95730.66;;;11.00;86.15
25855;BME280;13680;49.936;11.344;2023-03-13T09:31:32;95730.09;;;11.16;85.23
25855;BME280;13680;49.936;11.344;2023-03-13T09:33:58;95723.31;;;11.30;84.52
25855;BME280;13680;49.936;11.344;2023-03-13T09:36:24;95723.31;;;11.30;84.07
25855;BME280;13680;49.936;11.344;2023-03-13T09:38:51;95725.47;;;11.16;85.62
25855;BME280;13680;49.936;11.344;2023-03-13T09:41:25;95731.25;;;11.06;86.14
25855;BME280;13680;49.936;11.344;2023-03-13T09:46:22;95704.50;;;11.43;84.77
25855;BME280;13680;49.936;11.344;2023-03-13T09:48:53;95708.25;;;11.51;84.65
25855;BME280;13680;49.936;11.344;2023-03-13T09:51:27;95714.50;;;11.63;84.06
25855;BME280;13680;49.936;11.344;2023-03-13T09:56:24;95704.97;;;11.66;83.98
25855;BME280;13680;49.936;11.344;2023-03-13T09:58:58;95706.44;;;11.76;83.43
25855;BME280;13680;49.936;11.344;2023-03-13T10:01:29;95699.78;;;11.73;83.65
25855;BME280;13680;49.936;11.344;2023-03-13T10:06:44;95708.25;;;11.84;83.61
25855;BME280;13680;49.936;11.344;2023-03-13T10:09:16;95703.44;;;11.90;83.38
25855;BME280;13680;49.936;11.344;2023-03-13T10:11:52;95716.34;;;11.84;83.54
25855;BME280;13680;49.936;11.344;2023-03-13T10:14:28;95706.06;;;11.99;83.28
25855;BME280;13680;49.936;11.344;2023-03-13T10:19:36;95713.56;;;11.93;83.03
25855;BME280;13680;49.936;11.344;2023-03-13T10:22:14;95708.94;;;11.93;83.84
25855;BME280;13680;49.936;11.344;2023-03-13T10:25:02;95709.69;;;12.15;82.60
25855;BME280;13680;49.936;11.344;2023-03-13T10:27:29;95717.44;;;12.17;82.71
25855;BME280;13680;49.936;11.344;2023-03-13T10:29:54;95700.47;;;12.16;83.10
25855;BME280;13680;49.936;11.344;2023-03-13T10:32:20;95695.31;;;12.11;83.69
25855;BME280;13680;49.936;11.344;2023-03-13T10:34:59;95710.13;;;12.30;82.56
25855;BME280;13680;49.936;11.344;2023-03-13T10:37:40;95699.34;;;12.30;83.39
25855;BME280;13680;49.936;11.344;2023-03-13T10:40:33;95705.41;;;12.14;84.71
25855;BME280;13680;49.936;11.344;2023-03-13T10:43:02;95704.88;;;12.33;84.28
25855;BME280;13680;49.936;11.344;2023-03-13T10:45:32;95698.00;;;12.11;85.54
25855;BME280;13680;49.936;11.344;2023-03-13T10:48:12;95702.38;;;12.28;85.19
25855;BME280;13680;49.936;11.344;2023-03-13T10:50:42;95689.56;;;12.13;86.68
25855;BME280;13680;49.936;11.344;2023-03-13T10:56:08;95691.84;;;12.35;86.63
25855;BME280;13680;49.936;11.344;2023-03-13T10:58:40;95673.75;;;12.48;87.11
25855;BME280;13680;49.936;11.344;2023-03-13T11:03:34;95673.63;;;12.57;86.54
25855;BME280;13680;49.936;11.344;2023-03-13T11:06:01;95657.91;;;13.00;85.18
25855;BME280;13680;49.936;11.344;2023-03-13T11:08:33;95652.59;;;13.16;84.78
25855;BME280;13680;49.936;11.344;2023-03-13T11:11:01;95655.16;;;13.24;82.96
25855;BME280;13680;49.936;11.344;2023-03-13T11:13:41;95662.41;;;13.08;83.96
25855;BME280;13680;49.936;11.344;2023-03-13T11:16:13;95649.91;;;13.44;82.26
25855;BME280;13680;49.936;11.344;2023-03-13T11:21:23;95640.13;;;13.11;82.87
25855;BME280;13680;49.936;11.344;2023-03-13T11:23:57;95643.66;;;13.27;83.34
25855;BME280;13680;49.936;11.344;2023-03-13T11:29:02;95624.44;;;13.57;81.62
25855;BME280;13680;49.936;11.344;2023-03-13T11:31:38;95636.97;;;13.66;81.13
25855;BME280;13680;49.936;11.344;2023-03-13T11:34:05;95623.13;;;13.99;79.38
25855;BME280;13680;49.936;11.344;2023-03-13T11:36:46;95613.44;;;14.14;78.64
25855;BME280;13680;49.936;11.344;2023-03-13T11:39:52;95636.44;;;14.40;76.51
25855;BME280;13680;49.936;11.344;2023-03-13T11:45:20;95639.78;;;14.17;77.02
25855;BME280;13680;49.936;11.344;2023-03-13T11:51:08;95634.25;;;14.30;75.73
25855;BME280;13680;49.936;11.344;2023-03-13T11:53:56;95625.66;;;13.76;77.53
25855;BME280;13680;49.936;11.344;2023-03-13T11:56:42;95627.03;;;14.02;76.68
25855;BME280;13680;49.936;11.344;2023-03-13T12:04:48;95607.41;;;14.21;75.72
25855;BME280;13680;49.936;11.344;2023-03-13T12:07:25;95601.72;;;14.42;74.86
25855;BME280;13680;49.936;11.344;2023-03-13T12:10:08;95605.91;;;14.23;74.54
25855;BME280;13680;49.936;11.344;2023-03-13T12:12:45;95603.66;;;14.26;73.92
25855;BME280;13680;49.936;11.344;2023-03-13T12:17:42;95601.44;;;14.47;73.95
25855;BME280;13680;49.936;11.344;2023-03-13T12:28:44;95579.44;;;14.49;73.67
25855;BME280;13680;49.936;11.344;2023-03-13T12:34:16;95572.63;;;14.55;73.85
25855;BME280;13680;49.936;11.344;2023-03-13T12:36:48;95569.56;;;14.56;73.97
25855;BME280;13680;49.936;11.344;2023-03-13T12:39:34;95563.00;;;14.57;73.11
25855;BME280;13680;49.936;11.344;2023-03-13T12:42:20;95549.47;;;14.73;72.80
25855;BME280;13680;49.936;11.344;2023-03-13T12:44:48;95546.19;;;14.84;71.98
25855;BME280;13680;49.936;11.344;2023-03-13T12:50:11;95530.69;;;15.04;71.59
25855;BME280;13680;49.936;11.344;2023-03-13T12:52:57;95536.69;;;15.13;71.48
25855;BME280;13680;49.936;11.344;2023-03-13T12:55:39;95527.13;;;15.00;71.23
25855;BME280;13680;49.936;11.344;2023-03-13T13:01:06;95528.00;;;14.84;71.19
25855;BME280;13680;49.936;11.344;2023-03-13T13:03:37;95522.34;;;15.13;70.62
25855;BME280;13680;49.936;11.344;2023-03-13T13:06:07;95514.53;;;15.31;70.10
25855;BME280;13680;49.936;11.344;2023-03-13T13:08:42;95507.06;;;15.24;70.05
25855;BME280;13680;49.936;11.344;2023-03-13T13:16:57;95474.47;;;15.90;68.36
25855;BME280;13680;49.936;11.344;2023-03-13T13:24:55;95456.66;;;18.40;58.21
25855;BME280;13680;49.936;11.344;2023-03-13T13:30:02;95434.72;;;19.61;53.71
25855;BME280;13680;49.936;11.344;2023-03-13T13:32:34;95437.03;;;18.94;54.40
25855;BME280;13680;49.936;11.344;2023-03-13T13:37:36;95426.13;;;19.73;54.46
25855;BME280;13680;49.936;11.344;2023-03-13T13:42:59;95407.06;;;19.01;54.17
25855;BME280;13680;49.936;11.344;2023-03-13T13:45:35;95406.31;;;19.29;53.78
25855;BME280;13680;49.936;11.344;2023-03-13T13:48:26;95404.69;;;19.79;52.98
25855;BME280;13680;49.936;11.344;2023-03-13T13:51:24;95404.72;;;19.72;53.56
25855;BME280;13680;49.936;11.344;2023-03-13T13:53:52;95404.75;;;19.25;53.18
25855;BME280;13680;49.936;11.344;2023-03-13T13:56:40;95402.41;;;18.91;54.30
25855;BME280;13680;49.936;11.344;2023-03-13T14:10:02;95387.16;;;18.83;54.70
25855;BME280;13680;49.936;11.344;2023-03-13T14:12:29;95377.50;;;19.00;54.52
25855;BME280;13680;49.936;11.344;2023-03-13T14:17:30;95372.69;;;18.49;55.11
25855;BME280;13680;49.936;11.344;2023-03-13T14:20:01;95373.16;;;18.73;55.12
25855;BME280;13680;49.936;11.344;2023-03-13T14:22:46;95365.34;;;18.54;54.84
25855;BME280;13680;49.936;11.344;2023-03-13T14:25:12;95365.34;;;17.62;56.29
25855;BME280;13680;49.936;11.344;2023-03-13T14:27:44;95369.41;;;17.97;56.56
25855;BME280;13680;49.936;11.344;2023-03-13T14:30:11;95359.31;;;17.97;55.91
25855;BME280;13680;49.936;11.344;2023-03-13T14:32:37;95350.00;;;17.98;55.96
25855;BME280;13680;49.936;11.344;2023-03-13T14:35:04;95347.38;;;18.27;56.10
25855;BME280;13680;49.936;11.344;2023-03-13T14:37:47;95336.97;;;18.80;54.24